Airport ICAO


11:56 UTC

17°C

Clear skies


An affordable passengers' Moving Map for your aircraft. Made for the iPad and the iPhone
More information here

EGKA Shoreham


Shoreham By Sea UNITED KINGDOM   VFR CAVOK


METAR EGKA 191150Z 16005KT CAVOK 17/10 Q1023 0h06min

TAF EGKA 191054Z 1912/1921 16004KT CAVOK PROB30 TEMPO 1912/1921 8000 1h02min





NOTAMS

OPEN